Time;durP1;ratioP1;P1;durP2;ratioP2;P2;SDS_P1;SDS_P2;PMS_P1;PMS_P2;Temp;Humidity;BMP_temperature;BMP_pressure;BME280_temperature;BME280_humidity;BME280_pressure;Samples;Min_cycle;Max_cycle;Signal;HPM_P1;HPM_P2
2022/01/25 00:24:28;;;;;;;;;;;;;;;20.18;27.87;102327.19;5073464;28;1067;-47
2022/01/25 00:32:06;;;;;;;;;;;;;;;19.11;29.72;102325.56;5058603;28;858;-46
2022/01/25 00:34:31;;;;;;;;;;;;;;;21.01;26.56;102326.84;5040448;28;1219;-46
2022/01/25 00:36:57;;;;;;;;;;;;;;;21.01;26.55;102332.38;5065525;28;1906;-48
2022/01/25 00:39:22;;;;;;;;;;;;;;;21.36;25.98;102324.53;5058072;28;927;-49
2022/01/25 00:41:47;;;;;;;;;;;;;;;20.85;26.67;102319.53;5058232;28;774;-48
2022/01/25 00:44:13;;;;;;;;;;;;;;;19.91;28.37;102319.72;5058812;28;858;-48
2022/01/25 00:46:39;;;;;;;;;;;;;;;19.06;29.68;102317.22;5058097;28;817;-47
2022/01/25 00:49:04;;;;;;;;;;;;;;;18.60;30.29;102313.69;5051121;28;886;-50
2022/01/25 00:54:04;;;;;;;;;;;;;;;20.73;27.01;102316.94;5075990;28;1137;-49
2022/01/25 00:56:31;;;;;;;;;;;;;;;20.92;26.87;102316.53;5023325;28;1976;-50
2022/01/25 00:59:00;;;;;;;;;;;;;;;21.24;26.48;102304.53;5058478;28;840;-51
2022/01/25 01:01:26;;;;;;;;;;;;;;;20.78;27.07;102307.88;5062742;28;782;-51
2022/01/25 01:03:51;;;;;;;;;;;;;;;19.89;28.09;102296.22;5077438;28;773;-50
2022/01/25 01:06:17;;;;;;;;;;;;;;;19.28;29.36;102303.47;5077422;28;915;-49
2022/01/25 01:08:42;;;;;;;;;;;;;;;18.88;29.78;102298.19;5076620;28;849;-50
2022/01/25 01:11:12;;;;;;;;;;;;;;;19.91;28.29;102292.13;5057010;28;1005;-50
2022/01/25 01:30:21;;;;;;;;;;;;;;;20.85;27.08;102284.41;5057197;28;770;-49
2022/01/25 01:40:48;;;;;;;;;;;;;;;19.72;28.68;102286.06;5062469;28;789;-46
2022/01/25 01:48:16;;;;;;;;;;;;;;;21.65;25.58;102268.78;5076515;28;804;-51
2022/01/25 01:50:42;;;;;;;;;;;;;;;20.41;27.36;102265.28;5062825;28;1098;-51
2022/01/25 01:53:07;;;;;;;;;;;;;;;19.64;28.61;102265.31;5069711;28;1079;-49
2022/01/25 01:55:33;;;;;;;;;;;;;;;19.11;29.49;102264.91;5060936;28;891;-48
2022/01/25 01:57:58;;;;;;;;;;;;;;;19.10;29.67;102262.41;5056728;28;1945;-51
2022/01/25 02:00:27;;;;;;;;;;;;;;;20.16;28.18;102254.78;5056596;28;901;-48
2022/01/25 02:02:52;;;;;;;;;;;;;;;20.62;27.26;102260.72;5056895;28;1111;-48
2022/01/25 02:05:18;;;;;;;;;;;;;;;19.76;28.34;102254.09;5059141;28;799;-50
2022/01/25 02:07:43;;;;;;;;;;;;;;;19.26;29.24;102244.13;5076032;28;777;-49
2022/01/25 02:10:09;;;;;;;;;;;;;;;18.66;30.41;102249.31;5065059;28;734;-50
2022/01/25 02:12:34;;;;;;;;;;;;;;;18.94;30.13;102253.06;5056595;28;821;-49
2022/01/25 02:15:02;;;;;;;;;;;;;;;20.69;27.10;102246.69;5056889;28;742;-49
2022/01/25 02:22:55;;;;;;;;;;;;;;;20.82;26.78;102237.94;5075494;28;998;-50
2022/01/25 02:25:21;;;;;;;;;;;;;;;19.91;28.08;102247.94;5062610;28;839;-48
2022/01/25 02:27:46;;;;;;;;;;;;;;;19.17;29.51;102241.00;5076065;28;1169;-48
2022/01/25 02:30:12;;;;;;;;;;;;;;;18.71;30.40;102232.06;5066931;28;773;-45
2022/01/25 02:32:37;;;;;;;;;;;;;;;20.13;28.31;102236.84;5056151;28;762;-49
2022/01/25 02:35:03;;;;;;;;;;;;;;;21.59;25.84;102223.66;5056316;28;821;-48
2022/01/25 02:37:29;;;;;;;;;;;;;;;21.11;26.64;102228.41;5056145;28;1977;-49
2022/01/25 02:39:54;;;;;;;;;;;;;;;21.71;25.94;102223.41;5052925;28;875;-51
2022/01/25 02:42:19;;;;;;;;;;;;;;;19.94;28.43;102227.28;5057756;28;825;-50
2022/01/25 02:44:45;;;;;;;;;;;;;;;19.24;29.49;102224.25;5075309;28;941;-50
2022/01/25 02:49:54;;;;;;;;;;;;;;;19.03;29.91;102224.00;5072189;28;1011;-47
2022/01/25 02:52:20;;;;;;;;;;;;;;;20.96;27.05;102226.41;5060609;28;1266;-49
2022/01/25 02:54:45;;;;;;;;;;;;;;;20.99;26.89;102237.75;5059567;28;792;-51
2022/01/25 02:57:11;;;;;;;;;;;;;;;21.45;26.14;102223.31;5057358;28;1906;-49
2022/01/25 02:59:37;;;;;;;;;;;;;;;21.20;26.37;102211.03;5060382;28;886;-51
2022/01/25 03:02:02;;;;;;;;;;;;;;;20.12;27.99;102218.59;5060037;28;1186;-49
2022/01/25 03:04:29;;;;;;;;;;;;;;;19.26;29.46;102216.56;5060416;28;873;-47
2022/01/25 03:06:54;;;;;;;;;;;;;;;18.87;30.24;102209.13;5060394;28;815;-49
2022/01/25 03:09:20;;;;;;;;;;;;;;;19.07;29.95;102203.09;5069870;28;873;-46
2022/01/25 03:11:47;;;;;;;;;;;;;;;20.91;27.16;102215.31;5075402;28;782;-47
2022/01/25 03:14:13;;;;;;;;;;;;;;;20.28;27.62;102215.97;5079199;28;874;-50
2022/01/25 03:16:43;;;;;;;;;;;;;;;20.21;27.98;102207.06;5078804;28;1909;-45
2022/01/25 03:21:56;;;;;;;;;;;;;;;19.82;28.38;102208.09;5045361;28;866;-49
2022/01/25 03:24:21;;;;;;;;;;;;;;;19.37;29.16;102201.78;5057390;28;840;-46
2022/01/25 03:26:46;;;;;;;;;;;;;;;19.00;29.91;102201.59;5059366;28;1154;-47
2022/01/25 03:29:12;;;;;;;;;;;;;;;18.67;30.23;102193.13;5059744;28;830;-47
2022/01/25 03:31:37;;;;;;;;;;;;;;;18.91;29.95;102191.00;5060108;28;777;-47
2022/01/25 03:34:05;;;;;;;;;;;;;;;19.18;29.45;102189.44;5059429;28;887;-49
2022/01/25 03:36:31;;;;;;;;;;;;;;;19.44;29.06;102191.38;5059723;28;1922;-49
2022/01/25 03:38:56;;;;;;;;;;;;;;;19.22;29.45;102194.16;5059258;28;842;-51
2022/01/25 03:41:25;;;;;;;;;;;;;;;18.68;30.30;102185.69;5057814;28;742;-49
2022/01/25 03:43:54;;;;;;;;;;;;;;;19.55;29.00;102188.75;5059123;28;766;-46
2022/01/25 03:46:56;;;;;;;;;;;;;;;21.09;26.51;102181.66;5062339;28;839;-50
2022/01/25 03:51:49;;;;;;;;;;;;;;;21.29;26.39;102193.91;5053645;28;1164;-49
2022/01/25 03:54:15;;;;;;;;;;;;;;;20.35;27.65;102186.19;5057417;28;828;-46
2022/01/25 03:56:40;;;;;;;;;;;;;;;19.51;28.79;102185.69;5059078;28;2230;-48
2022/01/25 03:59:06;;;;;;;;;;;;;;;18.75;30.31;102181.69;5058348;28;936;-50
2022/01/25 04:01:32;;;;;;;;;;;;;;;18.52;30.54;102176.38;5079039;28;730;-48
2022/01/25 04:04:01;;;;;;;;;;;;;;;20.28;27.77;102186.41;5052916;28;837;-49
2022/01/25 04:06:29;;;;;;;;;;;;;;;21.42;25.95;102178.72;5058769;28;826;-50
2022/01/25 04:08:55;;;;;;;;;;;;;;;21.28;26.28;102172.88;5052885;28;875;-49
2022/01/25 04:11:21;;;;;;;;;;;;;;;21.26;26.12;102161.25;5068932;28;882;-47
2022/01/25 04:13:51;;;;;;;;;;;;;;;20.21;27.69;102160.13;5058757;28;968;-51
2022/01/25 04:16:21;;;;;;;;;;;;;;;19.35;29.17;102164.53;5059241;28;1910;-48
2022/01/25 04:19:12;;;;;;;;;;;;;;;18.86;30.02;102165.28;5052820;28;773;-48
2022/01/25 04:26:45;;;;;;;;;;;;;;;21.31;25.95;102158.53;5057196;28;858;-47
2022/01/25 04:29:11;;;;;;;;;;;;;;;21.56;25.90;102162.47;5055995;28;918;-47
2022/01/25 04:31:37;;;;;;;;;;;;;;;21.05;26.47;102158.41;5058899;28;832;-47
2022/01/25 04:35:11;;;;;;;;;;;;;;;19.26;29.04;102162.22;5058285;28;837;-46
2022/01/25 04:53:18;;;;;;;;;;;;;;;19.46;28.67;102155.25;5057995;28;1104;-49
2022/01/25 04:56:11;;;;;;;;;;;;;;;18.82;29.78;102153.94;5058174;28;994;-49
2022/01/25 04:59:16;;;;;;;;;;;;;;;19.65;28.49;102162.09;5057763;28;1894;-50
2022/01/25 05:01:28;;;;;;;;;;;;;;;21.51;25.60;102161.31;5066519;28;1441;-44
2022/01/25 05:04:05;;;;;;;;;;;;;;;21.30;26.08;102156.84;5060858;28;888;-47
2022/01/25 05:06:31;;;;;;;;;;;;;;;22.01;25.08;102155.31;5057620;28;893;-48
2022/01/25 05:09:06;;;;;;;;;;;;;;;19.85;27.95;102155.13;5057918;28;766;-49
2022/01/25 05:11:34;;;;;;;;;;;;;;;19.57;28.54;102156.22;5068549;28;838;-45
2022/01/25 05:16:35;;;;;;;;;;;;;;;19.54;28.55;102152.03;5057190;28;1988;-45
2022/01/25 05:24:19;;;;;;;;;;;;;;;18.75;29.68;102132.09;5055844;28;868;-45
2022/01/25 05:26:45;;;;;;;;;;;;;;;19.83;28.23;102138.00;5076345;28;750;-49
2022/01/25 05:29:10;;;;;;;;;;;;;;;21.39;26.03;102129.47;5063240;28;793;-48
2022/01/25 05:31:36;;;;;;;;;;;;;;;21.16;26.08;102132.47;5057581;28;833;-48
2022/01/25 05:34:02;;;;;;;;;;;;;;;21.44;25.84;102133.09;5057525;28;786;-50
2022/01/25 05:36:27;;;;;;;;;;;;;;;20.39;27.07;102134.84;5057780;28;1989;-50
2022/01/25 05:38:56;;;;;;;;;;;;;;;19.47;28.53;102127.44;5057448;28;785;-50
2022/01/25 05:41:26;;;;;;;;;;;;;;;18.95;29.61;102127.94;5060525;28;794;-50
2022/01/25 05:44:11;;;;;;;;;;;;;;;18.72;29.83;102129.84;5076509;28;817;-50
2022/01/25 05:46:46;;;;;;;;;;;;;;;20.77;26.70;102127.31;5076304;28;1876;-45
2022/01/25 05:49:11;;;;;;;;;;;;;;;22.07;25.00;102125.69;5074317;28;984;-48
2022/01/25 05:51:36;;;;;;;;;;;;;;;22.58;24.24;102127.53;5057279;28;895;-49
2022/01/25 05:54:02;;;;;;;;;;;;;;;20.81;26.69;102125.69;5063355;28;1036;-47
2022/01/25 05:56:27;;;;;;;;;;;;;;;21.77;25.45;102135.63;5052325;28;1976;-48
2022/01/25 05:58:54;;;;;;;;;;;;;;;20.56;26.94;102144.88;5057097;28;1111;-49
2022/01/25 06:01:19;;;;;;;;;;;;;;;19.15;29.36;102147.50;5057380;28;729;-46
2022/01/25 06:03:45;;;;;;;;;;;;;;;19.01;29.26;102143.44;5056309;28;817;-49
2022/01/25 06:06:11;;;;;;;;;;;;;;;18.90;29.41;102145.25;5056718;28;825;-44
2022/01/25 06:08:36;;;;;;;;;;;;;;;20.40;27.54;102150.31;5075966;28;770;-47
2022/01/25 06:11:02;;;;;;;;;;;;;;;20.69;26.83;102144.41;5054480;28;1017;-46
2022/01/25 06:13:27;;;;;;;;;;;;;;;19.97;27.85;102153.03;5056374;28;1053;-49
2022/01/25 06:15:53;;;;;;;;;;;;;;;19.39;28.89;102149.97;5056353;28;1375;-49
2022/01/25 06:18:18;;;;;;;;;;;;;;;19.05;29.52;102135.50;5055616;28;1917;-49
2022/01/25 06:20:43;;;;;;;;;;;;;;;20.26;27.55;102136.13;5074221;28;884;-46
2022/01/25 06:23:09;;;;;;;;;;;;;;;21.64;25.38;102131.47;5057324;28;826;-46
2022/01/25 06:25:38;;;;;;;;;;;;;;;20.65;26.67;102127.53;5061441;28;800;-48
2022/01/25 06:28:03;;;;;;;;;;;;;;;20.26;27.48;102129.75;5056168;28;833;-47
2022/01/25 06:30:29;;;;;;;;;;;;;;;20.40;27.34;102124.59;5056268;28;786;-47
2022/01/25 06:32:55;;;;;;;;;;;;;;;19.91;27.88;102126.50;5063499;28;833;-47
2022/01/25 06:35:20;;;;;;;;;;;;;;;19.72;28.12;102120.47;5075936;28;879;-49
2022/01/25 06:37:46;;;;;;;;;;;;;;;19.82;28.12;102114.25;5075284;28;1910;-46
2022/01/25 06:40:12;;;;;;;;;;;;;;;20.00;27.72;102116.59;5064234;28;929;-49
2022/01/25 06:42:37;;;;;;;;;;;;;;;20.02;27.73;102118.28;5056212;28;1064;-48
2022/01/25 06:45:07;;;;;;;;;;;;;;;19.92;27.86;102124.53;5055378;28;897;-49
2022/01/25 06:47:32;;;;;;;;;;;;;;;20.13;27.60;102120.88;5056000;28;793;-45
2022/01/25 06:49:57;;;;;;;;;;;;;;;20.08;27.86;102111.72;5059240;28;1075;-47
2022/01/25 06:52:23;;;;;;;;;;;;;;;19.96;27.78;102114.66;5075570;28;1060;-50
2022/01/25 06:54:49;;;;;;;;;;;;;;;19.85;28.03;102110.13;5065086;28;952;-47
2022/01/25 06:57:14;;;;;;;;;;;;;;;19.93;28.07;102104.13;5054979;28;1985;-49
2022/01/25 06:59:39;;;;;;;;;;;;;;;20.31;27.18;102119.59;5075265;28;917;-50
2022/01/25 07:02:05;;;;;;;;;;;;;;;20.22;27.44;102123.13;5074838;28;790;-47
2022/01/25 07:04:30;;;;;;;;;;;;;;;20.05;27.74;102123.25;5075576;28;951;-48
2022/01/25 07:06:56;;;;;;;;;;;;;;;20.03;27.84;102120.78;5074778;28;898;-47
2022/01/25 07:09:21;;;;;;;;;;;;;;;19.89;28.02;102122.31;5070150;28;1334;-57
2022/01/25 07:11:46;;;;;;;;;;;;;;;20.00;27.89;102115.78;5049994;28;1513;-57
2022/01/25 07:14:12;;;;;;;;;;;;;;;20.13;27.58;102122.78;5054704;28;1292;-59
2022/01/25 07:16:38;;;;;;;;;;;;;;;19.93;27.98;102120.69;5050908;28;1984;-58
2022/01/25 07:19:03;;;;;;;;;;;;;;;19.89;28.26;102108.50;5064059;28;1265;-60
2022/01/25 07:21:29;;;;;;;;;;;;;;;19.71;28.25;102118.81;5053152;28;1231;-58
2022/01/25 07:23:54;;;;;;;;;;;;;;;19.81;28.18;102113.44;5056873;28;1240;-59
2022/01/25 07:26:20;;;;;;;;;;;;;;;20.11;27.93;102112.00;5050560;28;1213;-60
2022/01/25 07:28:46;;;;;;;;;;;;;;;20.11;27.98;102108.41;5055795;28;1488;-58
2022/01/25 07:31:12;;;;;;;;;;;;;;;19.89;28.15;102105.75;5060747;28;1271;-57
2022/01/25 07:33:37;;;;;;;;;;;;;;;19.68;28.20;102111.06;5056704;28;1374;-56
2022/01/25 07:36:05;;;;;;;;;;;;;;;19.60;28.70;102109.63;5058386;28;1256;-58
2022/01/25 07:38:30;;;;;;;;;;;;;;;19.78;28.51;102108.41;5070382;28;1993;-55
2022/01/25 07:40:56;;;;;;;;;;;;;;;20.46;27.22;102096.75;5055213;28;1540;-59
2022/01/25 07:43:21;;;;;;;;;;;;;;;20.03;27.71;102103.38;5068509;28;1290;-58
2022/01/25 07:45:52;;;;;;;;;;;;;;;19.86;28.14;102104.34;5063580;28;1535;-66
2022/01/25 07:48:17;;;;;;;;;;;;;;;19.79;28.10;102101.81;5061706;28;785;-65
2022/01/25 07:50:42;;;;;;;;;;;;;;;20.06;27.85;102103.66;5062788;28;1595;-64
2022/01/25 07:53:08;;;;;;;;;;;;;;;20.24;27.58;102098.81;5074875;28;1413;-65
2022/01/25 07:55:33;;;;;;;;;;;;;;;20.02;28.02;102097.03;5068799;28;1536;-67
2022/01/25 07:57:59;;;;;;;;;;;;;;;19.81;28.32;102090.50;5060407;28;1874;-65
2022/01/25 08:00:24;;;;;;;;;;;;;;;19.88;28.40;102093.91;5053697;28;1370;-61
2022/01/25 08:02:51;;;;;;;;;;;;;;;20.09;28.18;102091.25;5055321;28;1568;-60
2022/01/25 08:05:17;;;;;;;;;;;;;;;20.24;27.51;102099.66;5059009;28;1474;-62
2022/01/25 08:07:43;;;;;;;;;;;;;;;20.07;27.87;102099.81;5060267;28;1583;-54
2022/01/25 08:10:08;;;;;;;;;;;;;;;19.88;28.38;102088.38;5057804;28;1527;-60
2022/01/25 08:12:34;;;;;;;;;;;;;;;19.84;28.38;102090.00;5067156;28;1311;-59
2022/01/25 08:15:00;;;;;;;;;;;;;;;20.23;27.68;102097.16;5050255;28;1164;-59
2022/01/25 08:17:25;;;;;;;;;;;;;;;20.13;27.68;102098.78;5070149;28;1905;-60
2022/01/25 08:19:51;;;;;;;;;;;;;;;19.99;28.13;102095.63;5064739;28;1289;-59
2022/01/25 08:22:18;;;;;;;;;;;;;;;19.88;28.26;102096.66;5057973;28;1163;-57
2022/01/25 08:24:44;;;;;;;;;;;;;;;19.73;28.54;102096.50;5057888;28;1374;-55
2022/01/25 08:27:10;;;;;;;;;;;;;;;19.87;28.16;102088.63;5057240;28;1218;-59
2022/01/25 08:29:35;;;;;;;;;;;;;;;20.51;28.40;102088.50;5057999;28;1380;-64
2022/01/25 08:32:00;;;;;;;;;;;;;;;20.07;29.63;102083.25;5087640;28;1294;-65
2022/01/25 08:34:26;;;;;;;;;;;;;;;19.77;30.02;102083.84;5054125;28;810;-58
2022/01/25 08:36:51;;;;;;;;;;;;;;;19.59;30.52;102085.06;5058035;28;1901;-62
2022/01/25 08:39:17;;;;;;;;;;;;;;;20.01;30.23;102095.38;5059555;28;851;-60
2022/01/25 08:41:43;;;;;;;;;;;;;;;20.84;28.76;102085.63;5058578;28;725;-62
2022/01/25 08:44:08;;;;;;;;;;;;;;;20.40;29.51;102086.78;5060675;28;1512;-60
2022/01/25 08:46:34;;;;;;;;;;;;;;;19.70;30.84;102077.69;5066984;28;1571;-65
2022/01/25 08:48:59;;;;;;;;;;;;;;;19.35;31.34;102076.25;5059553;28;1409;-59
2022/01/25 08:51:24;;;;;;;;;;;;;;;19.30;31.23;102074.28;5062804;28;1544;-60
2022/01/25 08:53:50;;;;;;;;;;;;;;;20.21;29.84;102072.56;5060439;28;1196;-58
2022/01/25 08:56:15;;;;;;;;;;;;;;;20.35;29.59;102073.75;5049785;28;1540;-59
2022/01/25 08:58:41;;;;;;;;;;;;;;;20.36;29.78;102069.06;5056756;28;1902;-58
2022/01/25 09:01:06;;;;;;;;;;;;;;;20.37;29.73;102058.84;5056482;28;1488;-59
2022/01/25 09:03:32;;;;;;;;;;;;;;;20.47;30.09;102065.25;5057155;28;1302;-58
2022/01/25 09:05:57;;;;;;;;;;;;;;;20.43;30.22;102058.59;5055625;28;1342;-58
2022/01/25 09:08:25;;;;;;;;;;;;;;;20.11;30.47;102051.25;5058549;28;1544;-59
2022/01/25 09:10:57;;;;;;;;;;;;;;;20.09;30.62;102052.59;5060246;28;1276;-59
2022/01/25 09:13:23;;;;;;;;;;;;;;;19.96;30.99;102051.16;5076854;28;832;-59
2022/01/25 09:15:48;;;;;;;;;;;;;;;20.01;30.93;102037.38;5042486;28;1161;-59
2022/01/25 09:18:14;;;;;;;;;;;;;;;19.99;31.13;102031.28;5062189;28;1973;-58
2022/01/25 09:20:39;;;;;;;;;;;;;;;20.06;31.38;102026.34;5055170;28;1374;-58
2022/01/25 09:23:04;;;;;;;;;;;;;;;19.98;31.18;102037.94;5068542;28;1456;-59
2022/01/25 09:25:30;;;;;;;;;;;;;;;19.81;31.09;102038.06;5059414;28;1410;-60
2022/01/25 09:27:55;;;;;;;;;;;;;;;20.06;30.80;102029.13;5065377;28;1626;-58
2022/01/25 09:30:21;;;;;;;;;;;;;;;20.61;29.92;102040.72;5051799;28;1388;-58
2022/01/25 09:32:46;;;;;;;;;;;;;;;20.40;30.61;102034.28;5057549;28;1440;-58
2022/01/25 09:35:12;;;;;;;;;;;;;;;20.07;31.20;102028.03;5057724;28;759;-57
2022/01/25 09:37:37;;;;;;;;;;;;;;;19.72;31.58;102034.13;5063386;28;1985;-58
2022/01/25 09:40:03;;;;;;;;;;;;;;;19.65;31.82;102023.28;5068114;28;1444;-59
2022/01/25 09:42:30;;;;;;;;;;;;;;;19.35;32.03;102016.44;5062981;28;1768;-57
2022/01/25 09:44:55;;;;;;;;;;;;;;;19.51;31.63;102009.13;5049334;28;1197;-56
2022/01/25 09:47:21;;;;;;;;;;;;;;;20.34;30.13;102004.97;5054540;28;1220;-57
2022/01/25 09:49:46;;;;;;;;;;;;;;;20.21;29.83;101995.25;5037738;28;1277;-61
2022/01/25 09:52:12;;;;;;;;;;;;;;;19.70;30.63;101992.97;5039512;28;1349;-60
2022/01/25 09:54:37;;;;;;;;;;;;;;;19.25;31.32;101984.09;5055215;28;1318;-61
2022/01/25 09:57:03;;;;;;;;;;;;;;;18.96;31.52;101983.53;5057675;28;1910;-56
2022/01/25 09:59:28;;;;;;;;;;;;;;;19.58;30.55;101978.53;5059302;28;1228;-64
2022/01/25 10:01:54;;;;;;;;;;;;;;;20.15;29.71;101988.88;5055357;28;1145;-58
2022/01/25 10:04:28;;;;;;;;;;;;;;;19.91;29.98;101963.63;5049460;28;1420;-59
2022/01/25 10:06:53;;;;;;;;;;;;;;;19.66;30.32;101970.59;5056270;28;1158;-57
2022/01/25 10:09:20;;;;;;;;;;;;;;;19.42;30.60;101961.88;5058301;28;1260;-63
2022/01/25 10:11:45;;;;;;;;;;;;;;;19.53;30.46;101956.44;5062620;28;1079;-70
2022/01/25 10:14:11;;;;;;;;;;;;;;;20.45;28.74;101951.41;5069217;28;1199;-63
2022/01/25 10:16:37;;;;;;;;;;;;;;;20.21;29.25;101944.72;5056635;28;1906;-61
2022/01/25 10:19:03;;;;;;;;;;;;;;;19.79;29.93;101972.09;5057525;28;1406;-62
2022/01/25 10:21:30;;;;;;;;;;;;;;;19.69;29.94;101949.09;5050393;28;1247;-64
2022/01/25 10:24:10;;;;;;;;;;;;;;;19.64;30.04;101941.59;5051925;28;1307;-64
2022/01/25 10:26:55;;;;;;;;;;;;;;;20.52;28.58;101935.44;5059817;28;1359;-64
2022/01/25 10:29:25;;;;;;;;;;;;;;;20.40;28.68;101943.13;5055623;28;1507;-63
2022/01/25 10:31:58;;;;;;;;;;;;;;;19.69;30.06;101943.59;5054605;28;1496;-63
2022/01/25 10:34:24;;;;;;;;;;;;;;;19.39;30.49;101936.75;5053311;28;1328;-59
2022/01/25 10:36:50;;;;;;;;;;;;;;;19.51;29.98;101942.09;5056317;28;1898;-63
2022/01/25 10:39:21;;;;;;;;;;;;;;;20.12;28.85;101936.94;5051177;28;1702;-63
2022/01/25 10:41:47;;;;;;;;;;;;;;;20.61;28.27;101948.72;5052046;28;1288;-64
2022/01/25 10:44:12;;;;;;;;;;;;;;;20.12;29.09;101934.19;5052090;28;1244;-63
2022/01/25 10:46:38;;;;;;;;;;;;;;;19.85;29.28;101925.19;5054620;28;1398;-64
2022/01/25 10:49:08;;;;;;;;;;;;;;;19.64;29.76;101925.03;5055945;28;858;-66
2022/01/25 10:51:33;;;;;;;;;;;;;;;19.91;29.38;101924.13;5055989;28;1412;-65
2022/01/25 10:54:00;;;;;;;;;;;;;;;20.56;28.47;101916.34;5056661;28;1283;-63
2022/01/25 10:56:25;;;;;;;;;;;;;;;20.15;28.81;101921.75;5052801;28;1251;-62
2022/01/25 10:58:51;;;;;;;;;;;;;;;19.82;29.20;101913.63;5064799;28;1980;-63
2022/01/25 11:01:33;;;;;;;;;;;;;;;19.83;29.29;101911.69;5037185;28;1515;-60
2022/01/25 11:04:09;;;;;;;;;;;;;;;19.82;29.43;101898.97;5064393;28;1278;-62
2022/01/25 11:06:34;;;;;;;;;;;;;;;19.97;29.28;101898.22;5075505;28;846;-68
2022/01/25 11:09:02;;;;;;;;;;;;;;;20.12;29.14;101898.28;5068546;28;1405;-69
2022/01/25 11:11:34;;;;;;;;;;;;;;;20.21;29.20;101893.06;5057064;28;1454;-66
2022/01/25 11:14:50;;;;;;;;;;;;;;;20.26;28.67;101873.75;5055865;28;1434;-60
2022/01/25 11:16:46;;;;;;;;;;;;;;;20.60;28.18;101867.72;5041799;28;1910;-62
2022/01/25 11:19:11;;;;;;;;;;;;;;;20.63;28.42;101874.66;5064194;28;1476;-62
2022/01/25 11:21:37;;;;;;;;;;;;;;;20.52;28.52;101877.41;5064100;28;1279;-61
2022/01/25 11:24:02;;;;;;;;;;;;;;;20.44;28.40;101871.56;5045689;28;1227;-65
2022/01/25 11:26:28;;;;;;;;;;;;;;;20.32;28.88;101867.13;5056900;28;1503;-65
2022/01/25 11:28:53;;;;;;;;;;;;;;;20.20;29.05;101860.19;5048169;28;1219;-65
2022/01/25 11:31:20;;;;;;;;;;;;;;;20.16;29.32;101859.88;5062697;28;1536;-65
2022/01/25 11:33:47;;;;;;;;;;;;;;;20.27;28.99;101858.00;5040241;28;1434;-65
2022/01/25 11:36:12;;;;;;;;;;;;;;;20.09;29.17;101853.78;5035004;28;1439;-65
2022/01/25 11:38:42;;;;;;;;;;;;;;;20.08;29.16;101860.44;5053930;28;1910;-64
2022/01/25 11:41:11;;;;;;;;;;;;;;;20.10;29.16;101861.81;5058509;28;1319;-65
2022/01/25 11:43:37;;;;;;;;;;;;;;;20.42;28.82;101849.75;5058733;28;1159;-64
2022/01/25 11:46:03;;;;;;;;;;;;;;;20.79;28.16;101859.78;5059212;28;730;-65
2022/01/25 11:48:35;;;;;;;;;;;;;;;21.08;27.45;101853.66;5059514;28;889;-65
2022/01/25 11:51:01;;;;;;;;;;;;;;;21.16;27.57;101850.34;5058113;28;1449;-65
2022/01/25 11:53:27;;;;;;;;;;;;;;;21.06;27.47;101858.66;5069461;28;1456;-67
2022/01/25 11:55:52;;;;;;;;;;;;;;;20.80;28.11;101852.28;5060540;28;1412;-65
2022/01/25 11:58:21;;;;;;;;;;;;;;;20.78;28.03;101844.28;5058050;28;1983;-63
2022/01/25 12:00:54;;;;;;;;;;;;;;;20.50;28.31;101849.19;5058568;28;1222;-63
2022/01/25 12:03:19;;;;;;;;;;;;;;;20.40;28.41;101837.28;5055316;28;1380;-64
2022/01/25 12:06:07;;;;;;;;;;;;;;;20.37;28.80;101838.69;5066067;28;1397;-66
2022/01/25 12:08:52;;;;;;;;;;;;;;;20.39;28.61;101841.19;5063158;28;1501;-63
2022/01/25 12:11:30;;;;;;;;;;;;;;;20.24;28.76;101830.94;5064491;28;1291;-67
2022/01/25 12:16:45;;;;;;;;;;;;;;;20.25;29.03;101827.06;5728785;23;1914;-63
2022/01/25 12:19:14;;;;;;;;;;;;;;;20.21;28.76;101828.72;5000042;28;1204;-62
2022/01/25 12:21:46;;;;;;;;;;;;;;;20.21;29.11;101824.00;4991961;28;865;-65
2022/01/25 12:24:19;;;;;;;;;;;;;;;20.18;29.29;101830.91;4987451;28;1532;-64
2022/01/25 12:27:02;;;;;;;;;;;;;;;20.24;28.92;101817.94;4988296;28;1307;-66
2022/01/25 12:29:28;;;;;;;;;;;;;;;20.18;29.19;101819.84;4986312;28;1367;-64
2022/01/25 12:31:54;;;;;;;;;;;;;;;20.15;29.05;101817.66;4980573;28;1105;-62
2022/01/25 12:34:25;;;;;;;;;;;;;;;20.44;28.34;101814.41;4984858;28;1469;-65
2022/01/25 12:36:51;;;;;;;;;;;;;;;20.75;27.79;101821.88;4995774;28;1915;-63
2022/01/25 12:39:18;;;;;;;;;;;;;;;20.74;28.04;101817.47;4993541;28;1325;-63
2022/01/25 12:41:44;;;;;;;;;;;;;;;20.62;28.28;101806.66;4999394;28;1428;-63
2022/01/25 12:44:10;;;;;;;;;;;;;;;20.45;28.49;101806.94;4990539;28;1195;-66
2022/01/25 12:46:40;;;;;;;;;;;;;;;20.22;28.49;101808.28;4987770;28;1244;-65
2022/01/25 12:49:14;;;;;;;;;;;;;;;20.15;28.76;101819.59;4991182;28;1347;-65
2022/01/25 12:51:41;;;;;;;;;;;;;;;19.86;29.34;101817.28;4986412;28;1513;-69
2022/01/25 12:54:08;;;;;;;;;;;;;;;20.06;28.66;101808.22;4988182;28;1307;-65
2022/01/25 12:56:34;;;;;;;;;;;;;;;20.37;28.49;101805.56;4991209;28;1919;-65
2022/01/25 12:59:03;;;;;;;;;;;;;;;20.65;27.87;101808.84;4988841;28;1399;-65
2022/01/25 13:01:29;;;;;;;;;;;;;;;20.70;27.79;101808.09;4990594;28;1573;-65
2022/01/25 13:04:01;;;;;;;;;;;;;;;20.48;27.88;101809.97;4995686;28;1264;-66
2022/01/25 13:06:31;;;;;;;;;;;;;;;20.54;27.67;101809.97;4992422;28;1290;-65
2022/01/25 13:09:12;;;;;;;;;;;;;;;20.20;28.32;101804.97;4986756;28;1281;-67
2022/01/25 13:16:58;;;;;;;;;;;;;;;20.17;28.31;101789.75;4994536;28;1907;-67
2022/01/25 13:19:28;;;;;;;;;;;;;;;20.26;28.01;101788.13;4994905;28;1336;-69
2022/01/25 13:21:55;;;;;;;;;;;;;;;20.39;28.12;101786.75;4998717;28;1105;-65
2022/01/25 13:24:21;;;;;;;;;;;;;;;20.46;27.77;101787.31;4993604;28;1390;-69
2022/01/25 13:26:53;;;;;;;;;;;;;;;20.60;27.51;101797.81;5004430;28;1211;-67
2022/01/25 13:32:09;;;;;;;;;;;;;;;20.63;27.61;101797.25;4992253;28;1235;-67
2022/01/25 13:34:36;;;;;;;;;;;;;;;20.80;27.29;101791.47;4987539;28;1526;-64
2022/01/25 13:37:02;;;;;;;;;;;;;;;20.79;27.24;101787.91;5001779;28;1972;-64
2022/01/25 13:39:28;;;;;;;;;;;;;;;20.79;27.30;101774.06;5006265;28;1398;-67
2022/01/25 13:42:02;;;;;;;;;;;;;;;20.94;27.52;101780.69;5001887;28;1320;-68
2022/01/25 13:47:12;;;;;;;;;;;;;;;20.93;27.53;101779.88;4997548;28;1291;-66
2022/01/25 13:49:37;;;;;;;;;;;;;;;20.97;27.27;101780.13;5009634;28;1283;-69
2022/01/25 13:52:04;;;;;;;;;;;;;;;20.96;27.34;101772.97;4994851;28;919;-67
2022/01/25 13:54:29;;;;;;;;;;;;;;;21.02;27.39;101777.34;4989502;28;826;-68
2022/01/25 13:56:55;;;;;;;;;;;;;;;21.07;27.31;101760.75;4992509;28;1988;-68
2022/01/25 13:59:25;;;;;;;;;;;;;;;20.98;27.08;101767.97;5010973;28;928;-68
2022/01/25 14:01:50;;;;;;;;;;;;;;;21.06;27.49;101761.88;5004255;28;876;-66
2022/01/25 14:04:20;;;;;;;;;;;;;;;21.18;27.20;101765.16;4999320;28;1070;-69
2022/01/25 14:06:52;;;;;;;;;;;;;;;20.09;29.12;101760.78;5002061;28;765;-66
2022/01/25 14:09:28;;;;;;;;;;;;;;;20.31;28.84;101763.28;4997086;28;1392;-64
2022/01/25 14:23:06;;;;;;;;;;;;;;;19.99;29.28;101766.25;4987334;28;902;-64
2022/01/25 14:25:33;;;;;;;;;;;;;;;19.92;29.43;101766.53;4992306;28;1032;-65
2022/01/25 14:31:38;;;;;;;;;;;;;;;19.81;29.48;101751.88;4999118;28;703;-65
2022/01/25 14:34:05;;;;;;;;;;;;;;;19.96;29.24;101761.28;4980222;28;1200;-64
2022/01/25 14:36:32;;;;;;;;;;;;;;;20.18;29.20;101763.81;4989305;28;1227;-64
2022/01/25 14:38:58;;;;;;;;;;;;;;;20.34;28.69;101767.41;4997334;28;1906;-61
2022/01/25 14:41:31;;;;;;;;;;;;;;;20.38;28.74;101763.00;4997533;28;980;-68
2022/01/25 14:43:58;;;;;;;;;;;;;;;20.40;28.46;101760.78;4985167;28;1927;-56
2022/01/25 14:46:25;;;;;;;;;;;;;;;20.55;28.26;101759.13;4986592;28;1026;-59
2022/01/25 14:49:00;;;;;;;;;;;;;;;20.53;28.22;101759.41;4989788;28;1196;-66
2022/01/25 14:51:39;;;;;;;;;;;;;;;20.44;28.27;101764.66;4977012;28;838;-64
2022/01/25 14:54:07;;;;;;;;;;;;;;;20.41;28.56;101759.69;4991630;28;900;-63
2022/01/25 14:56:34;;;;;;;;;;;;;;;20.61;28.08;101761.63;4982740;28;840;-63
2022/01/25 15:01:32;;;;;;;;;;;;;;;20.47;28.50;101758.59;4981556;28;956;-61
2022/01/25 15:03:57;;;;;;;;;;;;;;;20.59;28.10;101754.72;4996240;28;845;-60
2022/01/25 15:06:23;;;;;;;;;;;;;;;20.51;28.36;101762.44;4994795;28;869;-59